Terminal Aerodrome Forecast
Issued by NWS Omaha/Valley, NE

Home | Current Version | Previous Version | Text Only | Print | Product List | Glossary On
Versions: 1 2 3 4 5 6 7 8 9 10 11 12 13 14
000
FTUS43 KOAX 241129
TAFLNK
TAF
KLNK 241129Z 2412/2512 16009KT P6SM SCT250 WS020/19043KT
     FM241400 18013G21KT P6SM BKN070
     FM250100 29010KT P6SM SHRA VCTS SCT007 SCT020 OVC050CB
     FM250900 34010KT 4SM SHRA VCTS OVC006CB=

USA.gov is the U.S. government's official web portal to all federal, state and local government web resources and services.